Flight Track Log - Related Links

Times and Time Zones

All times are in EDT time to prevent confusion due to time zone crossing. See the N1157N flight status page for this flight to view local times or setup timezone preferences in your user account.

Time Position Orientation Groundspeed Altitude Reporting Facility
EDT Latitude Longitude Course Direction KTS MPH feet Rate Location/Type
Mon 05:38:32 PM 37.3500 -121.8333 322° Northwest 74 85 1,200  Level Northern Cal TRACON
Mon 05:39:32 PM 37.3667 -121.8500 322° Northwest 81 93 1,900 653 Climbing Northern Cal TRACON
Mon 05:40:13 PM 37.3758 -121.8492 North 74 85 2,300 600 Climbing Oakland Center
Mon 05:40:32 PM 37.3833 -121.8500 355° North 88 101 2,500 811 Climbing Northern Cal TRACON
Mon 05:41:27 PM 37.4167 -121.8333 22° Northeast 89 102 3,300 737 Climbing Northern Cal TRACON
Mon 05:42:26 PM 37.4167 -121.8000 90° East 101 116 3,900 655 Climbing Northern Cal TRACON
Mon 05:43:26 PM 37.4000 -121.7833 142° Southeast 104 120 4,600 645 Climbing Northern Cal TRACON
Mon 05:44:27 PM 37.3833 -121.7500 122° Southeast 99 114 5,200 626 Climbing Northern Cal TRACON
Mon 05:45:21 PM 37.3667 -121.7167 122° Southeast 104 120 5,800 474 Climbing Northern Cal TRACON
Mon 05:46:21 PM 37.3500 -121.7000 142° Southeast 119 137 6,100 151 Climbing Northern Cal TRACON
Mon 05:47:20 PM 37.3333 -121.6500 113° Southeast 159 183 6,100  Level Northern Cal TRACON
Mon 05:48:20 PM 37.3000 -121.6167 141° Southeast 170 196 6,100 200 Level Northern Cal TRACON
Mon 05:49:20 PM 37.2667 -121.5667 130° Southeast 154 177 6,500 419 Climbing Northern Cal TRACON
Mon 05:50:29 PM 37.2356 -121.5317 138° Southeast 133 153 7,000 462 Climbing Oakland Center
Mon 05:51:30 PM 37.2100 -121.4964 132° Southeast 135 155 7,500 439 Climbing Oakland Center
Mon 05:52:32 PM 37.1839 -121.4631 135° Southeast 134 154 7,900 341 Climbing Oakland Center
Mon 05:53:33 PM 37.1600 -121.4267 129° Southeast 134 154 8,200 341 Climbing Oakland Center
Mon 05:54:35 PM 37.1369 -121.3911 129° Southeast 132 152 8,600 341 Climbing Oakland Center
Mon 05:55:36 PM 37.1142 -121.3525 126° Southeast 138 159 8,900 293 Climbing Oakland Center
Mon 05:56:38 PM 37.0925 -121.3117 124° Southeast 140 161 9,200 146 Climbing Oakland Center
Mon 05:57:39 PM 37.0608 -121.2622 129° Southeast 158 182 9,200 -49 Level Oakland Center
Mon 05:58:41 PM 37.0344 -121.2161 126° Southeast 162 186 9,100 -48 Descending Oakland Center
Mon 05:59:43 PM 37.0078 -121.1692 125° Southeast 164 189 9,100  Level Oakland Center
Mon 06:00:44 PM 36.9747 -121.1250 133° Southeast 166 191 9,100 49 Level Oakland Center
Mon 06:01:46 PM 36.9444 -121.0842 133° Southeast 162 186 9,200  Climbing Oakland Center
Mon 06:02:47 PM 36.9136 -121.0411 132° Southeast 165 190 9,100 -49 Descending Oakland Center
Mon 06:03:49 PM 36.8831 -120.9992 132° Southeast 163 188 9,100  Level Oakland Center
Mon 06:04:50 PM 36.8514 -120.9569 133° Southeast 166 191 9,100  Level Oakland Center
Mon 06:05:52 PM 36.8192 -120.9164 135° Southeast 164 189 9,100  Level Oakland Center
Mon 06:06:53 PM 36.7869 -120.8778 136° Southeast 162 186 9,100  Level Oakland Center
Mon 06:07:55 PM 36.7511 -120.8281 132° Southeast 160 184 9,100 -48 Level Oakland Center
Mon 06:08:57 PM 36.7222 -120.7831 129° Southeast 162 186 9,000 -49 Descending Oakland Center
Mon 06:09:58 PM 36.6850 -120.7506 145° Southeast 164 189 9,000  Level Oakland Center
Mon 06:11:00 PM 36.6439 -120.7294 158° South 160 184 9,000  Level Oakland Center
Mon 06:12:01 PM 36.6042 -120.6992 149° Southeast 167 192 9,000  Level Oakland Center
Mon 06:13:03 PM 36.5653 -120.6656 145° Southeast 168 193 9,000 49 Level Oakland Center
Mon 06:14:04 PM 36.5283 -120.6342 146° Southeast 162 186 9,100 98 Climbing Oakland Center
Mon 06:15:06 PM 36.4881 -120.6044 149° Southeast 167 192 9,200 49 Climbing Oakland Center
Mon 06:16:07 PM 36.4383 -120.5736 153° Southeast 167 192 9,200 -49 Level Oakland Center
Mon 06:17:09 PM 36.3983 -120.5464 151° Southeast 165 190 9,100  Descending Oakland Center
Mon 06:18:10 PM 36.3597 -120.5125 145° Southeast 168 193 9,200  Climbing Oakland Center
Mon 06:19:12 PM 36.3211 -120.4769 143° Southeast 172 198 9,100 -49 Descending Oakland Center
Mon 06:20:13 PM 36.2833 -120.4447 145° Southeast 166 191 9,100 49 Level Oakland Center
Mon 06:21:15 PM 36.2433 -120.4139 148° Southeast 169 194 9,200  Climbing Oakland Center
Mon 06:22:17 PM 36.2011 -120.3872 153° Southeast 169 194 9,100 -49 Descending Oakland Center
Mon 06:23:18 PM 36.1578 -120.3611 154° Southeast 172 198 9,100  Level Oakland Center
Mon 06:24:20 PM 36.1069 -120.3261 151° Southeast 174 200 9,100  Level Oakland Center
Mon 06:25:21 PM 36.0661 -120.2906 145° Southeast 176 203 9,100 49 Level Oakland Center
Mon 06:26:23 PM 36.0250 -120.2572 147° Southeast 177 204 9,200  Climbing Oakland Center
Mon 06:27:24 PM 35.9817 -120.2292 152° Southeast 176 203 9,100 -98 Descending Oakland Center
Mon 06:28:26 PM 35.9394 -120.1958 147° Southeast 177 204 9,000  Descending Oakland Center
Mon 06:29:27 PM 35.8997 -120.1614 145° Southeast 176 203 9,100  Climbing Oakland Center
Mon 06:30:29 PM 35.8581 -120.1281 147° Southeast 176 203 9,000  Descending Oakland Center
Mon 06:31:30 PM 35.8139 -120.1006 153° Southeast 178 205 9,100  Climbing Oakland Center
Mon 06:32:31 PM 35.7711 -120.0728 152° Southeast 176 203 9,000 -49 Descending Oakland Center
Mon 06:33:33 PM 35.7203 -120.0400 152° Southeast 174 200 9,000  Level Oakland Center
Mon 06:34:34 PM 35.6781 -120.0106 150° Southeast 173 199 9,000  Level Oakland Center
Mon 06:35:36 PM 35.6397 -119.9769 145° Southeast 171 197 9,000  Level Oakland Center
Mon 06:36:37 PM 35.6069 -119.9342 133° Southeast 170 196 9,000  Level Los Angeles Center
Mon 06:37:51 PM 35.5783 -119.8861 126° Southeast 172 198 9,000  Level Los Angeles Center
Mon 06:38:41 PM 35.5453 -119.8439 134° Southeast 172 198 9,000 54 Level Oakland Center
Mon 06:39:42 PM 35.5108 -119.8017 135° Southeast 174 200 9,100 246 Climbing Oakland Center
Mon 06:40:43 PM 35.4794 -119.7589 132° Southeast 171 197 9,500 293 Climbing Oakland Center
Mon 06:41:45 PM 35.4528 -119.7222 132° Southeast 153 176 9,700 293 Climbing Oakland Center
Mon 06:42:46 PM 35.4206 -119.6775 131° Southeast 147 169 10,100 341 Climbing Oakland Center
Mon 06:43:48 PM 35.3936 -119.6389 131° Southeast 148 170 10,400 341 Climbing Oakland Center
Mon 06:44:49 PM 35.3667 -119.5989 130° Southeast 151 174 10,800 308 Climbing Oakland Center
Mon 06:45:06 PM 35.3619 -119.5917 129° Southeast 150 173 10,800 228 Level Los Angeles Center
Mon 06:46:08 PM 35.3356 -119.5519 129° Southeast 148 170 11,100 194 Climbing Los Angeles Center
Mon 06:47:10 PM 35.3000 -119.5058 133° Southeast 152 175 11,200 48 Climbing Los Angeles Center
Mon 06:48:13 PM 35.2672 -119.4661 135° Southeast 161 185 11,200  Level Los Angeles Center
Mon 06:49:14 PM 35.2350 -119.4236 133° Southeast 168 193 11,200  Level Los Angeles Center
Mon 06:50:17 PM 35.2019 -119.3831 135° Southeast 168 193 11,200  Level Los Angeles Center
Mon 06:51:19 PM 35.1678 -119.3414 135° Southeast 171 197 11,200  Level Los Angeles Center
Mon 06:52:21 PM 35.1347 -119.3003 135° Southeast 170 196 11,200  Level Los Angeles Center
Mon 06:53:23 PM 35.0978 -119.2494 132° Southeast 167 192 11,200  Level Los Angeles Center
Mon 06:54:25 PM 35.0675 -119.2064 131° Southeast 167 192 11,200  Level Los Angeles Center
Mon 06:55:39 PM 35.0300 -119.1558 132° Southeast 166 191 11,200 -131 Level Los Angeles Center
Mon 06:56:42 PM 34.9975 -119.1119 132° Southeast 171 197 10,900  Descending Los Angeles Center
Mon 06:57:44 PM 34.9661 -119.0694 132° Southeast 170 196 11,200 145 Climbing Los Angeles Center
Mon 06:58:46 PM 34.9358 -119.0250 130° Southeast 172 198 11,200  Level Los Angeles Center
Mon 06:59:48 PM 34.9022 -118.9675 125° Southeast 173 199 11,200 -48 Level Los Angeles Center
Mon 07:00:50 PM 34.8756 -118.9244 127° Southeast 171 197 11,100 -48 Descending Los Angeles Center
Mon 07:01:52 PM 34.8467 -118.8769 127° Southeast 173 199 11,100  Level Los Angeles Center
Mon 07:02:54 PM 34.8197 -118.8303 125° Southeast 170 196 11,100  Level Los Angeles Center
Mon 07:03:56 PM 34.7908 -118.7678 119° Southeast 176 203 11,100 -48 Level Los Angeles Center
Mon 07:04:59 PM 34.7664 -118.7214 123° Southeast 168 193 11,000 -48 Descending Los Angeles Center
Mon 07:06:01 PM 34.7381 -118.6733 126° Southeast 175 201 11,000 48 Level Los Angeles Center
Mon 07:07:03 PM 34.7089 -118.6261 127° Southeast 173 199 11,100 48 Climbing Los Angeles Center
Mon 07:08:05 PM 34.6797 -118.5781 126° Southeast 176 203 11,100  Level Los Angeles Center
Mon 07:09:07 PM 34.6394 -118.5494 150° Southeast 167 192 11,100 -48 Level Los Angeles Center
Mon 07:10:09 PM 34.5828 -118.5297 164° South 175 201 11,000 -48 Descending Los Angeles Center
Mon 07:11:11 PM 34.5367 -118.5097 160° South 176 203 11,000 -387 Level Los Angeles Center
Mon 07:12:13 PM 34.4867 -118.4828 156° South 194 223 10,200 -677 Descending Los Angeles Center
Mon 07:13:15 PM 34.4344 -118.4531 155° Southeast 206 237 9,600 -435 Descending Los Angeles Center
Mon 07:14:17 PM 34.3872 -118.4239 153° Southeast 191 220 9,300 -240 Descending Los Angeles Center
Mon 07:15:20 PM 34.3347 -118.3897 152° Southeast 180 207 9,100 -96 Descending Los Angeles Center
Mon 07:16:22 PM 34.2933 -118.3611 150° Southeast 175 201 9,100  Level Los Angeles Center
Mon 07:17:24 PM 34.2525 -118.3353 152° Southeast 168 193 9,100  Level Los Angeles Center
Mon 07:18:26 PM 34.2131 -118.3100 152° Southeast 164 189 9,100  Level Los Angeles Center
Mon 07:19:28 PM 34.1750 -118.2836 150° Southeast 159 183 9,100  Level Los Angeles Center
Mon 07:20:30 PM 34.1358 -118.2600 153° Southeast 158 182 9,100  Level Los Angeles Center
Mon 07:21:32 PM 34.0892 -118.2325 154° Southeast 156 180 9,100  Level Los Angeles Center
Mon 07:22:34 PM 34.0492 -118.2150 160° South 154 177 9,100  Level Los Angeles Center
Mon 07:23:36 PM 34.0106 -118.1961 158° South 150 173 9,100 -484 Level Los Angeles Center
Mon 07:24:38 PM 33.9631 -118.2042 188° South 168 193 8,100 -484 Descending Los Angeles Center
Mon 07:25:40 PM 33.9156 -118.2119 188° South 172 198 8,100 -96 Level Los Angeles Center
Mon 07:26:43 PM 33.8731 -118.2186 187° South 163 188 7,900 -480 Descending Los Angeles Center
Mon 07:27:45 PM 33.8164 -118.2267 187° South 166 191 7,100 -585 Descending Los Angeles Center
Mon 07:28:46 PM 33.7853 -118.1972 142° Southeast 175 201 6,700 -629 Descending Los Angeles Center
Mon 07:29:49 PM 33.7397 -118.1594 145° Southeast 179 206 5,800 -816 Descending Los Angeles Center
Mon 07:30:51 PM 33.6947 -118.1744 196° South 169 194 5,000 -726 Descending Los Angeles Center
Mon 07:31:53 PM 33.6769 -118.2142 242° Southwest 170 196 4,300 -677 Descending Los Angeles Center
Mon 07:32:55 PM 33.7042 -118.2486 314° West 147 169 3,600 -677 Descending Los Angeles Center
Mon 07:33:57 PM 33.7367 -118.2592 345° North 129 148 2,900 -677 Descending Los Angeles Center
Mon 07:36:00 PM 33.7943 -118.3267 316° Northwest  Level FlightAware Approximate
Mon 07:43:00 PM 33.8000 -118.3333 325° Northwest  Level FlightAware Approximate
Mon 07:44:00 PM 33.8034 -118.3396 325° Northwest  Level Estimated
Mon 07:45:00 PM 33.8000 -118.3333 325° Northwest  Level FlightAware Approximate
Mon 07:46:00 PM 33.8034 -118.3396 325° Northwest  Level Estimated

Login

Don't have an account? Register now (free) for customized features, flight alerts, and more!